createdAt,value
2023-02-17T00:00:18.030Z,637.00
2023-02-17T00:01:18.098Z,637.00
2023-02-17T00:02:18.038Z,638.00
2023-02-17T00:03:18.043Z,634.00
2023-02-17T00:05:17.981Z,637.00
2023-02-17T00:06:17.982Z,638.00
2023-02-17T00:07:17.961Z,634.00
2023-02-17T00:08:17.961Z,634.00
2023-02-17T00:09:17.951Z,631.00
2023-02-17T00:10:17.932Z,629.00
2023-02-17T00:11:17.934Z,625.00
2023-02-17T00:12:17.910Z,626.00
2023-02-17T00:13:17.906Z,628.00
2023-02-17T00:14:17.890Z,630.00
2023-02-17T00:15:17.878Z,630.00
2023-02-17T00:16:17.948Z,632.00
2023-02-17T00:17:17.862Z,632.00
2023-02-17T00:18:17.861Z,634.00
2023-02-17T00:19:17.841Z,632.00
2023-02-17T00:20:17.836Z,633.00
2023-02-17T00:21:17.841Z,635.00
2023-02-17T00:22:17.828Z,633.00
2023-02-17T00:23:17.823Z,631.00
2023-02-17T00:24:17.809Z,630.00
2023-02-17T00:25:17.797Z,630.00
2023-02-17T00:27:17.816Z,633.00
2023-02-17T00:28:17.838Z,629.00
2023-02-17T00:29:17.869Z,632.00
2023-02-17T00:36:17.999Z,630.00
2023-02-17T00:37:18.017Z,631.00
2023-02-17T00:38:18.049Z,632.00
2023-02-17T00:39:18.091Z,632.00
2023-02-17T00:40:18.098Z,630.00
2023-02-17T00:41:18.116Z,628.00
2023-02-17T00:42:18.134Z,625.00
2023-02-17T00:43:18.140Z,625.00
2023-02-17T00:44:18.161Z,622.00
2023-02-17T00:45:18.199Z,623.00
2023-02-17T00:46:18.227Z,624.00
2023-02-17T00:47:18.232Z,623.00
2023-02-17T00:48:18.292Z,626.00
2023-02-17T00:49:18.255Z,624.00
2023-02-17T00:50:18.274Z,622.00
2023-02-17T00:51:18.293Z,621.00
2023-02-17T00:52:18.325Z,624.00
2023-02-17T00:53:18.342Z,627.00
2023-02-17T00:54:18.395Z,628.00
2023-02-17T00:55:18.404Z,628.00
2023-02-17T00:56:18.400Z,628.00
2023-02-17T00:57:18.422Z,626.00
2023-02-17T00:58:18.438Z,626.00
2023-02-17T00:59:18.462Z,626.00
2023-02-17T01:01:18.539Z,626.00
2023-02-17T01:02:18.541Z,627.00
2023-02-17T01:03:18.567Z,628.00
2023-02-17T01:14:18.814Z,623.00
2023-02-17T01:15:18.834Z,624.00
2023-02-17T01:16:18.934Z,623.00
2023-02-17T01:17:18.896Z,623.00
2023-02-17T01:18:18.895Z,620.00
2023-02-17T01:19:18.929Z,619.00
2023-02-17T01:20:18.943Z,617.00
2023-02-17T01:21:19.051Z,615.00
2023-02-17T01:22:18.990Z,617.00
2023-02-17T01:23:19.023Z,616.00
2023-02-17T01:24:19.034Z,617.00
2023-02-17T01:25:19.059Z,613.00
2023-02-17T01:26:19.091Z,611.00
2023-02-17T01:27:19.112Z,609.00
2023-02-17T01:28:19.132Z,608.00
2023-02-17T01:29:19.164Z,609.00
2023-02-17T01:30:19.271Z,609.00
2023-02-17T01:31:19.309Z,609.00
2023-02-17T01:32:19.327Z,609.00
2023-02-17T01:33:19.272Z,608.00
2023-02-17T01:34:19.294Z,608.00
2023-02-17T01:35:19.312Z,607.00
2023-02-17T01:36:19.343Z,608.00
2023-02-17T01:37:19.374Z,608.00
2023-02-17T01:38:19.414Z,608.00
2023-02-17T01:39:19.426Z,607.00
2023-02-17T01:40:19.517Z,608.00
2023-02-17T01:41:19.479Z,606.00
2023-02-17T01:42:19.505Z,606.00
2023-02-17T01:43:19.541Z,605.00
2023-02-17T01:44:19.601Z,604.00
2023-02-17T01:45:19.668Z,601.00
2023-02-17T01:46:19.650Z,603.00
2023-02-17T01:47:19.664Z,604.00
2023-02-17T01:48:19.696Z,604.00
2023-02-17T01:49:19.806Z,602.00
2023-02-17T01:50:19.768Z,601.00
2023-02-17T01:51:19.791Z,600.00
2023-02-17T01:52:19.842Z,600.00
2023-02-17T01:53:19.867Z,598.00
2023-02-17T01:54:19.910Z,599.00
2023-02-17T01:55:19.935Z,599.00
2023-02-17T01:56:19.952Z,600.00
2023-02-17T01:57:19.994Z,600.00
2023-02-17T01:58:20.024Z,602.00
2023-02-17T01:59:20.069Z,601.00
2023-02-17T02:00:20.076Z,601.00
2023-02-17T02:01:20.113Z,600.00
2023-02-17T02:02:20.207Z,601.00
2023-02-17T02:03:20.186Z,600.00
2023-02-17T02:04:20.245Z,600.00
2023-02-17T02:05:20.214Z,596.00
2023-02-17T02:06:21.216Z,598.00
2023-02-17T02:07:20.284Z,599.00
2023-02-17T02:08:20.308Z,599.00
2023-02-17T02:09:20.383Z,600.00
2023-02-17T02:10:20.378Z,601.00
2023-02-17T02:11:20.411Z,603.00
2023-02-17T02:12:20.443Z,601.00
2023-02-17T02:13:20.481Z,602.00
2023-02-17T02:14:20.526Z,603.00
2023-02-17T02:15:20.587Z,600.00
2023-02-17T02:16:20.673Z,598.00
2023-02-17T02:17:20.621Z,600.00
2023-02-17T02:18:20.645Z,605.00
2023-02-17T02:19:20.667Z,606.00
2023-02-17T02:20:20.691Z,606.00
2023-02-17T02:21:20.725Z,609.00
2023-02-17T02:22:20.769Z,607.00
2023-02-17T02:24:20.800Z,607.00
2023-02-17T02:25:20.829Z,609.00
2023-02-17T02:26:20.852Z,606.00
2023-02-17T02:27:20.875Z,604.00
2023-02-17T02:28:20.985Z,603.00
2023-02-17T02:29:20.925Z,604.00
2023-02-17T02:30:21.098Z,605.00
2023-02-17T02:31:21.057Z,604.00
2023-02-17T02:32:20.996Z,605.00
2023-02-17T02:33:21.024Z,604.00
2023-02-17T02:34:21.048Z,602.00
2023-02-17T02:35:21.077Z,603.00
2023-02-17T02:36:21.080Z,601.00
2023-02-17T02:37:21.097Z,596.00
2023-02-17T02:38:21.121Z,595.00
2023-02-17T02:39:21.114Z,596.00
2023-02-17T02:40:21.134Z,595.00
2023-02-17T02:41:21.144Z,594.00
2023-02-17T02:42:21.153Z,599.00
2023-02-17T02:43:21.172Z,601.00
2023-02-17T02:44:21.171Z,603.00
2023-02-17T02:45:21.248Z,601.00
2023-02-17T02:46:21.188Z,599.00
2023-02-17T02:47:21.198Z,598.00
2023-02-17T02:48:21.207Z,597.00
2023-02-17T02:49:21.217Z,598.00
2023-02-17T02:50:21.246Z,597.00
2023-02-17T02:51:21.237Z,597.00
2023-02-17T02:52:21.252Z,598.00
2023-02-17T02:53:21.265Z,596.00
2023-02-17T02:54:21.261Z,593.00
2023-02-17T02:55:21.261Z,591.00
2023-02-17T02:56:21.260Z,590.00
2023-02-17T02:57:21.262Z,588.00
2023-02-17T02:58:21.327Z,587.00
2023-02-17T02:59:21.280Z,590.00
2023-02-17T03:00:21.285Z,592.00
2023-02-17T03:01:21.328Z,591.00
2023-02-17T03:02:21.290Z,592.00
2023-02-17T03:03:21.285Z,594.00
2023-02-17T03:04:21.370Z,596.00
2023-02-17T03:05:21.304Z,597.00
2023-02-17T03:06:21.300Z,598.00
2023-02-17T03:07:21.375Z,598.00
2023-02-17T03:08:21.305Z,598.00
2023-02-17T03:09:21.298Z,596.00
2023-02-17T03:10:21.295Z,593.00
2023-02-17T03:11:21.297Z,589.00
2023-02-17T03:12:21.298Z,590.00
2023-02-17T03:13:21.294Z,593.00
2023-02-17T03:14:21.295Z,593.00
2023-02-17T03:15:21.292Z,593.00
2023-02-17T03:16:21.303Z,589.00
2023-02-17T03:17:21.277Z,590.00
2023-02-17T03:18:21.274Z,589.00
2023-02-17T03:19:21.753Z,588.00
2023-02-17T03:20:21.281Z,588.00
2023-02-17T03:21:21.263Z,589.00
2023-02-17T03:22:21.268Z,587.00
2023-02-17T03:23:22.231Z,587.00
2023-02-17T03:24:21.263Z,585.00
2023-02-17T03:25:21.302Z,584.00
2023-02-17T03:26:21.250Z,582.00
2023-02-17T03:27:21.272Z,582.00
2023-02-17T04:19:21.389Z,567.00
2023-02-17T04:20:21.128Z,566.00
2023-02-17T04:21:21.119Z,563.00
2023-02-17T04:22:21.130Z,562.00
2023-02-17T04:23:21.129Z,561.00
2023-02-17T04:24:21.128Z,560.00
2023-02-17T04:25:21.145Z,561.00
2023-02-17T04:26:21.147Z,561.00
2023-02-17T04:27:21.147Z,562.00
2023-02-17T04:28:21.154Z,563.00
2023-02-17T04:29:21.162Z,561.00
2023-02-17T04:30:21.169Z,562.00
2023-02-17T05:28:21.397Z,551.00
2023-02-17T05:29:21.510Z,552.00
2023-02-17T05:30:21.543Z,554.00
2023-02-17T05:31:21.459Z,555.00
2023-02-17T05:32:21.401Z,556.00
2023-02-17T05:33:21.391Z,555.00
2023-02-17T05:34:21.406Z,554.00
2023-02-17T05:35:21.412Z,555.00
2023-02-17T05:36:21.417Z,555.00
2023-02-17T05:37:21.418Z,554.00
2023-02-17T05:38:21.419Z,553.00
2023-02-17T05:39:21.427Z,555.00
2023-02-17T06:54:21.297Z,539.00
2023-02-17T06:55:21.298Z,537.00
2023-02-17T06:56:21.360Z,539.00
2023-02-17T06:57:21.310Z,538.00
2023-02-17T06:58:21.294Z,539.00
2023-02-17T06:59:21.289Z,538.00
2023-02-17T07:00:21.288Z,537.00
2023-02-17T07:01:21.294Z,537.00
2023-02-17T07:02:21.425Z,537.00
2023-02-17T07:03:21.290Z,534.00
2023-02-17T07:04:21.286Z,534.00
2023-02-17T07:05:21.277Z,534.00
2023-02-17T07:06:21.272Z,535.00
2023-02-17T07:07:21.274Z,534.00
2023-02-17T07:08:21.273Z,533.00
2023-02-17T07:09:21.259Z,530.00
2023-02-17T07:10:21.823Z,528.00
2023-02-17T07:11:21.246Z,529.00
2023-02-17T07:12:21.238Z,531.00
2023-02-17T07:13:21.260Z,531.00
2023-02-17T07:14:22.502Z,533.00
2023-02-17T07:15:21.207Z,532.00
2023-02-17T07:16:21.234Z,534.00
2023-02-17T07:17:21.187Z,534.00
2023-02-17T07:18:21.177Z,533.00
2023-02-17T07:19:21.171Z,534.00
2023-02-17T07:20:21.155Z,533.00
2023-02-17T07:21:21.136Z,532.00
2023-02-17T07:22:21.124Z,531.00
2023-02-17T07:23:21.114Z,530.00
2023-02-17T07:24:21.101Z,528.00
2023-02-17T07:25:21.085Z,528.00
2023-02-17T07:26:21.078Z,526.00
2023-02-17T07:27:21.058Z,528.00
2023-02-17T07:28:21.024Z,531.00
2023-02-17T07:29:21.021Z,531.00
2023-02-17T07:30:21.038Z,531.00
2023-02-17T07:31:21.148Z,532.00
2023-02-17T07:32:20.978Z,532.00
2023-02-17T07:33:20.960Z,532.00
2023-02-17T07:34:20.946Z,532.00
2023-02-17T07:35:21.833Z,534.00
2023-02-17T07:36:20.900Z,535.00
2023-02-17T07:37:21.863Z,535.00
2023-02-17T07:38:20.871Z,534.00
2023-02-17T07:39:20.855Z,533.00
2023-02-17T07:40:20.840Z,533.00
2023-02-17T07:41:20.823Z,534.00
2023-02-17T07:42:20.808Z,536.00
2023-02-17T07:43:20.786Z,534.00
2023-02-17T07:44:20.865Z,533.00
2023-02-17T07:45:21.329Z,532.00
2023-02-17T07:46:21.381Z,533.00
2023-02-17T07:47:20.739Z,534.00
2023-02-17T07:48:20.722Z,536.00
2023-02-17T07:49:20.757Z,539.00
2023-02-17T07:50:20.697Z,539.00
2023-02-17T07:51:20.695Z,538.00
2023-02-17T07:52:20.668Z,538.00
2023-02-17T07:53:21.258Z,535.00
2023-02-17T07:54:20.642Z,536.00
2023-02-17T07:55:20.628Z,534.00
2023-02-17T07:56:23.335Z,533.00
2023-02-17T07:57:20.618Z,532.00
2023-02-17T07:58:20.605Z,532.00
2023-02-17T07:59:20.848Z,535.00
2023-02-17T08:00:20.591Z,537.00
2023-02-17T08:01:20.691Z,538.00
2023-02-17T08:02:20.620Z,536.00
2023-02-17T08:03:20.545Z,535.00
2023-02-17T08:04:20.683Z,536.00
2023-02-17T08:05:20.509Z,538.00
2023-02-17T08:30:20.142Z,529.00
2023-02-17T08:31:20.222Z,531.00
2023-02-17T08:32:20.133Z,532.00
2023-02-17T08:33:20.088Z,530.00
2023-02-17T08:34:20.095Z,526.00
2023-02-17T08:35:20.080Z,525.00
2023-02-17T08:36:20.023Z,527.00
2023-02-17T08:37:20.065Z,528.00
2023-02-17T08:38:20.000Z,528.00
2023-02-17T08:39:19.972Z,526.00
2023-02-17T08:40:20.059Z,528.00
2023-02-17T08:41:19.945Z,525.00
2023-02-17T08:42:19.999Z,523.00
2023-02-17T08:43:19.907Z,522.00
2023-02-17T08:44:19.918Z,523.00
2023-02-17T08:45:19.886Z,524.00
2023-02-17T08:46:19.879Z,526.00
2023-02-17T08:47:20.370Z,527.00
2023-02-17T08:48:19.836Z,529.00
2023-02-17T08:49:19.841Z,527.00
2023-02-17T08:50:19.856Z,525.00
2023-02-17T08:51:19.770Z,526.00
2023-02-17T08:52:19.754Z,525.00
2023-02-17T08:53:19.761Z,524.00
2023-02-17T08:54:19.937Z,523.00
2023-02-17T08:55:19.713Z,524.00
2023-02-17T08:56:19.749Z,524.00
2023-02-17T08:57:19.686Z,524.00
2023-02-17T08:58:19.709Z,525.00
2023-02-17T08:59:19.718Z,525.00
2023-02-17T09:00:19.731Z,522.00
2023-02-17T09:01:19.664Z,522.00
2023-02-17T09:02:19.610Z,524.00
2023-02-17T09:03:19.626Z,522.00
2023-02-17T09:04:19.691Z,521.00
2023-02-17T09:05:19.581Z,523.00
2023-02-17T09:06:19.551Z,525.00
2023-02-17T09:07:19.553Z,523.00
2023-02-17T09:08:19.561Z,521.00
2023-02-17T09:09:19.512Z,519.00
2023-02-17T09:10:19.519Z,517.00
2023-02-17T09:11:20.362Z,516.00
2023-02-17T09:12:19.511Z,516.00
2023-02-17T09:13:19.456Z,516.00
2023-02-17T09:14:19.472Z,517.00
2023-02-17T09:15:19.887Z,520.00
2023-02-17T09:16:19.457Z,517.00
2023-02-17T09:17:19.406Z,518.00
2023-02-17T09:18:19.386Z,518.00
2023-02-17T09:19:19.385Z,520.00
2023-02-17T09:20:28.723Z,520.00
2023-02-17T09:21:20.396Z,521.00
2023-02-17T09:22:31.097Z,521.00
2023-02-17T09:23:20.351Z,521.00
2023-02-17T09:24:19.357Z,517.00
2023-02-17T09:25:19.310Z,516.00
2023-02-17T09:26:19.360Z,517.00
2023-02-17T09:27:19.287Z,516.00
2023-02-17T09:28:19.279Z,518.00
2023-02-17T09:29:19.287Z,520.00
2023-02-17T09:30:19.351Z,522.00
2023-02-17T09:31:19.438Z,522.00
2023-02-17T09:32:19.422Z,524.00
2023-02-17T09:33:19.254Z,521.00
2023-02-17T09:34:19.287Z,516.00
2023-02-17T09:35:19.200Z,517.00
2023-02-17T09:36:19.235Z,517.00
2023-02-17T09:37:19.200Z,518.00
2023-02-17T09:38:19.224Z,521.00
2023-02-17T09:39:19.156Z,519.00
2023-02-17T09:40:19.190Z,520.00
2023-02-17T09:41:19.249Z,520.00
2023-02-17T09:42:19.296Z,520.00
2023-02-17T09:43:19.292Z,519.00
2023-02-17T09:44:19.926Z,520.00
2023-02-17T09:45:19.424Z,520.00
2023-02-17T09:46:19.454Z,521.00
2023-02-17T09:47:19.457Z,521.00
2023-02-17T09:48:19.385Z,519.00
2023-02-17T09:49:19.386Z,521.00
2023-02-17T09:50:19.389Z,522.00
2023-02-17T09:51:20.322Z,519.00
2023-02-17T09:52:19.467Z,521.00
2023-02-17T09:53:19.443Z,520.00
2023-02-17T09:54:19.514Z,517.00
2023-02-17T09:55:19.557Z,516.00
2023-02-17T09:56:19.900Z,515.00
2023-02-17T09:57:19.641Z,514.00
2023-02-17T09:58:19.607Z,514.00
2023-02-17T09:59:19.672Z,514.00
2023-02-17T10:00:19.686Z,515.00
2023-02-17T10:01:19.762Z,515.00
2023-02-17T10:02:19.730Z,516.00
2023-02-17T10:03:19.905Z,517.00
2023-02-17T10:04:19.909Z,517.00
2023-02-17T10:05:19.916Z,516.00
2023-02-17T10:06:19.897Z,515.00
2023-02-17T10:07:20.034Z,513.00
2023-02-17T10:08:20.001Z,512.00
2023-02-17T10:09:20.092Z,513.00
2023-02-17T10:10:20.186Z,514.00
2023-02-17T10:11:20.206Z,515.00
2023-02-17T10:12:20.208Z,516.00
2023-02-17T10:13:20.321Z,515.00
2023-02-17T10:14:20.243Z,513.00
2023-02-17T10:15:20.347Z,514.00
2023-02-17T10:16:20.481Z,512.00
2023-02-17T10:17:20.391Z,512.00
2023-02-17T14:49:21.095Z,538.00
2023-02-17T14:50:21.080Z,538.00
2023-02-17T14:51:21.072Z,533.00
2023-02-17T14:52:21.083Z,533.00
2023-02-17T14:53:21.086Z,536.00
2023-02-17T14:54:21.141Z,534.00
2023-02-17T14:55:21.043Z,534.00
2023-02-17T14:56:21.022Z,531.00
2023-02-17T14:57:21.006Z,527.00
2023-02-17T14:58:21.075Z,526.00
2023-02-17T14:59:20.949Z,524.00
2023-02-17T15:00:20.984Z,528.00
2023-02-17T15:01:20.944Z,528.00
2023-02-17T15:02:20.872Z,529.00
2023-02-17T15:03:20.841Z,529.00
2023-02-17T15:04:20.812Z,530.00
2023-02-17T15:05:20.789Z,534.00
2023-02-17T15:06:20.770Z,533.00
2023-02-17T15:07:20.744Z,533.00
2023-02-17T15:08:20.732Z,530.00
2023-02-17T15:09:20.716Z,530.00
2023-02-17T15:10:20.704Z,528.00
2023-02-17T15:11:20.693Z,528.00
2023-02-17T15:12:20.676Z,529.00
2023-02-17T15:13:21.506Z,532.00
2023-02-17T15:14:20.642Z,533.00
2023-02-17T15:15:20.615Z,535.00
2023-02-17T15:16:20.626Z,537.00
2023-02-17T15:17:20.632Z,537.00
2023-02-17T15:18:20.617Z,537.00
2023-02-17T15:19:20.562Z,539.00
2023-02-17T15:20:20.559Z,539.00
2023-02-17T15:21:20.541Z,539.00
2023-02-17T15:22:20.535Z,539.00
2023-02-17T15:23:20.530Z,540.00
2023-02-17T15:24:20.514Z,542.00
2023-02-17T15:25:20.500Z,540.00
2023-02-17T15:26:20.509Z,541.00
2023-02-17T15:27:20.487Z,540.00
2023-02-17T15:28:20.496Z,537.00
2023-02-17T15:29:20.461Z,534.00
2023-02-17T15:30:20.484Z,535.00
2023-02-17T15:31:20.497Z,532.00
2023-02-17T15:32:20.610Z,532.00
2023-02-17T15:33:20.435Z,531.00
2023-02-17T15:34:20.430Z,529.00
2023-02-17T15:35:20.416Z,530.00
2023-02-17T15:36:20.401Z,530.00
2023-02-17T15:37:20.398Z,533.00
2023-02-17T15:38:20.392Z,534.00
2023-02-17T15:39:20.389Z,536.00
2023-02-17T15:40:20.389Z,536.00
2023-02-17T15:41:20.365Z,537.00
2023-02-17T15:42:20.368Z,538.00
2023-02-17T15:43:20.400Z,538.00
2023-02-17T15:44:20.347Z,537.00
2023-02-17T15:45:20.375Z,536.00
2023-02-17T15:46:20.394Z,536.00
2023-02-17T15:47:20.351Z,535.00
2023-02-17T15:48:20.348Z,533.00
2023-02-17T15:49:20.363Z,531.00
2023-02-17T15:50:20.650Z,533.00
2023-02-17T15:51:20.355Z,535.00
2023-02-17T15:52:20.363Z,535.00
2023-02-17T15:53:20.380Z,533.00
2023-02-17T15:54:20.369Z,533.00
2023-02-17T15:55:20.382Z,534.00
2023-02-17T15:56:20.602Z,530.00
2023-02-17T15:57:20.392Z,530.00
2023-02-17T15:58:20.399Z,530.00
2023-02-17T15:59:20.401Z,531.00
2023-02-17T16:00:20.429Z,532.00
2023-02-17T16:01:20.437Z,532.00
2023-02-17T16:02:21.136Z,536.00
2023-02-17T16:03:20.505Z,536.00
2023-02-17T16:04:20.492Z,537.00
2023-02-17T16:05:20.492Z,536.00
2023-02-17T16:06:20.512Z,535.00
2023-02-17T16:07:20.535Z,535.00
2023-02-17T16:08:20.546Z,536.00
2023-02-17T16:09:20.590Z,536.00
2023-02-17T16:10:20.625Z,537.00
2023-02-17T16:11:20.635Z,536.00
2023-02-17T16:12:20.606Z,536.00
2023-02-17T16:13:20.632Z,534.00
2023-02-17T16:14:20.634Z,534.00
2023-02-17T16:15:20.694Z,533.00
2023-02-17T16:16:20.723Z,533.00
2023-02-17T16:17:20.683Z,533.00
2023-02-17T16:18:20.710Z,530.00
2023-02-17T16:19:20.735Z,532.00
2023-02-17T16:20:20.742Z,533.00
2023-02-17T16:21:20.760Z,532.00
2023-02-17T16:22:20.785Z,534.00
2023-02-17T16:23:20.823Z,537.00
2023-02-17T16:24:20.850Z,539.00
2023-02-17T16:25:20.859Z,539.00
2023-02-17T16:26:20.885Z,541.00
2023-02-17T16:27:20.920Z,539.00
2023-02-17T16:28:20.959Z,536.00
2023-02-17T16:29:20.991Z,536.00
2023-02-17T20:07:23.557Z,548.00
2023-02-17T20:08:23.556Z,548.00
2023-02-17T20:09:23.539Z,547.00
2023-02-17T20:10:23.511Z,546.00
2023-02-17T20:11:23.490Z,547.00
2023-02-17T20:12:23.474Z,547.00
2023-02-17T20:13:23.484Z,549.00
2023-02-17T20:14:23.440Z,549.00
2023-02-17T20:15:23.432Z,545.00
2023-02-17T20:16:23.433Z,545.00
2023-02-17T20:17:23.390Z,546.00
2023-02-17T20:18:23.367Z,547.00
2023-02-17T20:19:23.352Z,547.00
2023-02-17T20:20:23.352Z,545.00
2023-02-17T20:21:23.315Z,546.00
2023-02-17T20:22:23.379Z,546.00
2023-02-17T20:23:23.300Z,546.00
2023-02-17T20:24:23.285Z,545.00
2023-02-17T20:25:23.276Z,545.00
2023-02-17T20:26:23.818Z,544.00
2023-02-17T20:27:23.769Z,542.00
2023-02-17T20:28:23.222Z,543.00
2023-02-17T20:29:23.221Z,541.00
2023-02-17T20:30:23.234Z,541.00
2023-02-17T20:31:23.305Z,541.00
2023-02-17T20:32:23.249Z,540.00
2023-02-17T20:33:23.172Z,540.00
2023-02-17T20:34:23.164Z,539.00
2023-02-17T20:35:23.164Z,542.00
2023-02-17T20:36:23.140Z,544.00
2023-02-17T20:37:23.140Z,542.00
2023-02-17T20:38:23.115Z,541.00
2023-02-17T20:39:23.106Z,539.00
2023-02-17T20:40:23.107Z,538.00
2023-02-17T20:41:23.092Z,539.00
2023-02-17T20:42:23.078Z,541.00
2023-02-17T20:43:23.626Z,542.00
2023-02-17T20:44:23.100Z,543.00
2023-02-17T20:45:23.032Z,544.00
2023-02-17T20:46:23.125Z,542.00
2023-02-17T20:47:23.007Z,542.00
2023-02-17T20:48:22.986Z,544.00
2023-02-17T20:49:23.051Z,545.00
2023-02-17T20:50:22.966Z,544.00
2023-02-17T20:51:22.968Z,546.00
2023-02-17T20:52:22.957Z,545.00
2023-02-17T20:53:22.934Z,545.00
2023-02-17T20:54:22.915Z,544.00
2023-02-17T20:55:22.912Z,545.00
2023-02-17T20:56:22.884Z,545.00
2023-02-17T20:57:22.889Z,544.00
2023-02-17T20:58:22.861Z,543.00
2023-02-17T20:59:22.893Z,543.00
2023-02-17T21:00:22.855Z,543.00
2023-02-17T21:01:22.849Z,544.00
2023-02-17T21:02:22.833Z,541.00
2023-02-17T21:03:22.817Z,540.00
2023-02-17T21:04:22.813Z,539.00
2023-02-17T21:05:22.792Z,540.00
2023-02-17T21:06:22.789Z,541.00
2023-02-17T21:07:22.768Z,539.00
2023-02-17T21:08:22.767Z,540.00
2023-02-17T21:09:22.740Z,537.00
2023-02-17T21:10:22.725Z,535.00
2023-02-17T21:11:22.736Z,532.00
2023-02-17T21:12:22.707Z,536.00
2023-02-17T21:13:22.718Z,535.00
2023-02-17T21:14:22.689Z,535.00
2023-02-17T22:08:22.238Z,533.00
2023-02-17T22:09:22.310Z,532.00
2023-02-17T22:10:22.240Z,533.00
2023-02-17T22:11:22.231Z,532.00
2023-02-17T22:12:22.234Z,535.00
2023-02-17T22:13:22.225Z,534.00
2023-02-17T22:14:22.230Z,533.00
2023-02-17T22:15:22.248Z,530.00
2023-02-17T22:16:22.357Z,530.00
2023-02-17T22:17:22.221Z,530.00
2023-02-17T22:18:22.219Z,531.00
2023-02-17T22:19:22.224Z,532.00
2023-02-17T22:20:22.223Z,531.00
2023-02-17T22:21:22.215Z,534.00
2023-02-17T22:22:22.212Z,534.00
2023-02-17T22:23:22.277Z,536.00
2023-02-17T22:24:22.225Z,539.00
2023-02-17T22:25:22.203Z,539.00
2023-02-17T22:26:22.256Z,537.00
2023-02-17T22:27:22.207Z,539.00
2023-02-17T22:28:22.196Z,540.00
2023-02-17T22:29:22.199Z,538.00
2023-02-17T22:30:22.234Z,536.00
2023-02-17T22:31:22.280Z,536.00
2023-02-17T22:32:22.288Z,534.00
2023-02-17T22:33:22.186Z,532.00
2023-02-17T22:34:22.243Z,531.00
2023-02-17T22:35:22.184Z,531.00
2023-02-17T22:36:22.188Z,532.00
2023-02-17T22:37:22.197Z,535.00
2023-02-17T22:38:22.674Z,536.00
2023-02-17T22:39:22.169Z,535.00
2023-02-17T22:40:22.178Z,535.00
2023-02-17T22:41:22.154Z,536.00
2023-02-17T22:42:22.150Z,534.00
2023-02-17T22:43:22.154Z,529.00
2023-02-17T22:44:22.147Z,528.00
2023-02-17T22:45:22.149Z,528.00
2023-02-17T22:46:22.137Z,527.00
2023-02-17T22:47:22.130Z,528.00
2023-02-17T22:48:22.136Z,524.00
2023-02-17T22:49:22.226Z,521.00
2023-02-17T22:50:22.098Z,521.00
2023-02-17T22:51:22.086Z,521.00
2023-02-17T22:52:22.089Z,525.00
2023-02-17T22:53:22.073Z,523.00
2023-02-17T22:54:22.069Z,525.00
2023-02-17T22:55:22.060Z,524.00
2023-02-17T22:56:22.064Z,526.00
2023-02-17T22:57:22.039Z,525.00
2023-02-17T22:58:22.047Z,523.00
2023-02-17T22:59:22.033Z,525.00
2023-02-17T23:00:22.107Z,525.00
2023-02-17T23:01:22.036Z,527.00
2023-02-17T23:02:22.026Z,527.00
2023-02-17T23:03:22.093Z,530.00
2023-02-17T23:04:22.053Z,529.00
2023-02-17T23:05:22.043Z,529.00
2023-02-17T23:06:22.022Z,529.00
2023-02-17T23:07:22.017Z,530.00
2023-02-17T23:08:22.011Z,525.00
2023-02-17T23:09:22.004Z,526.00
2023-02-17T23:10:22.079Z,526.00
2023-02-17T23:11:22.008Z,528.00
2023-02-17T23:12:22.025Z,529.00
2023-02-17T23:13:22.007Z,528.00
2023-02-17T23:14:22.041Z,529.00
2023-02-17T23:15:22.016Z,528.00
2023-02-17T23:16:22.039Z,527.00
2023-02-17T23:17:22.083Z,529.00
2023-02-17T23:18:22.014Z,528.00
2023-02-17T23:19:22.025Z,528.00
2023-02-17T23:20:22.023Z,526.00
2023-02-17T23:21:22.027Z,526.00
2023-02-17T23:22:22.036Z,525.00
2023-02-17T23:23:22.053Z,524.00
2023-02-17T23:24:22.062Z,524.00
2023-02-17T23:25:22.140Z,524.00
2023-02-17T23:26:22.068Z,524.00
2023-02-17T23:27:22.069Z,522.00
2023-02-17T23:28:22.072Z,522.00
2023-02-17T23:29:22.069Z,523.00
2023-02-17T23:30:22.173Z,525.00
2023-02-17T23:31:22.167Z,525.00
2023-02-17T23:32:22.080Z,526.00
2023-02-17T23:33:22.088Z,522.00
2023-02-17T23:34:22.148Z,524.00
2023-02-17T23:35:22.094Z,521.00
2023-02-17T23:36:22.102Z,521.00
2023-02-17T23:37:22.096Z,521.00
2023-02-17T23:38:22.183Z,520.00
2023-02-17T23:39:22.114Z,521.00
2023-02-17T23:40:22.128Z,520.00
2023-02-17T23:41:22.120Z,521.00
2023-02-17T23:42:22.131Z,519.00
2023-02-17T23:43:22.135Z,522.00
2023-02-17T23:44:22.150Z,524.00
2023-02-17T23:45:22.149Z,525.00
2023-02-17T23:46:22.168Z,521.00
2023-02-17T23:47:22.172Z,519.00
2023-02-17T23:48:22.176Z,520.00
2023-02-17T23:49:22.169Z,519.00
2023-02-17T23:50:22.174Z,522.00
2023-02-17T23:51:22.192Z,519.00
2023-02-17T23:52:22.205Z,518.00
